Pagina principale
METAR-TAF:

METAR-TAF

Aeroporti :

Aeroporto militare Cameri

Novara, Italia

latitudine: 45-31N, longitudine: 008-40E, altezza: 178 m

Osservazione

Il bollettino è stato emesso 34 minuti fa, alle 16:55 UTC
Vento 5 kt da ovest
Temperature 24°C
Umidità 41%
Pressione 1014 hPa
Visibilità 10 km o più
nessuna nube inferiore a 1500 m e nessun cumulonembo

METAR: LIMN 131655Z 28005KT CAVOK 24/10 Q1014 RMK SKC VIS MIN 9999 BLU

Ora: 19:29 (17:29 UTC)

Previsione

Il bollettino è stato emesso 3 ore e 29 minuti fa, alle 14:00 UTC
Previsione valida dal 13 alle 15 UTC al 13 alle 24 UTC
Vento 5 kt da sud/sud-est
Visibilità 10 km o più
Nubi sparse ad un'altezza di 2000 ft
Temporaneamente
dal 13 alle 18 UTC al 13 alle 24 UTC
Nubi sparse ad un'altezza di 500 ft
Nubi sparse ad un'altezza di 2000 ft

TAF: LIMN 131400Z 1315/1324 15005KT 9999 SCT020 TEMPO 1318/1324 SCT005 SCT020

Osservazioni e previsioni meteorologiche di più di 4000 aeroporti (messaggi METAR e TAF).

Le stazioni disponibili sono rappresentate dai dischi gialli e rossi sulla carta.

Puntare il mouse per vedere il nome della stazione.

Clicca sopra per visualizzare le osservazioni e previsioni meteorologiche.

Per cambiare la mappa : fare clic sui pulsanti verdi con una croce nera per ingrandire, il pulsante verde con un trattino per diminuire, o sulla freccia verde per le mappe adiacenti.


METAR-TAF: